Lawrence Municipal Airport Lawrence US
ICAO: KLWM
IATA: LWM
Category: Medium
Scheduled Services: No

Elevation: 148 ft
TransAlt. 18000 ft.

Airport Communications:
BOSTON APP/DEP:124.4
ASOS:126.75
ATIS:126.75
CLNC DEL:124.3
CTAF:119.25
GND:124.3
BRIDGEPORT RDO:112.5
TWR:119.25
UNICOM:122.8

KLWM Zoom In..

Runways:

(A) RW 05 length 5001 ft width 150 ft
ILS 111.70 / hdg 53

(B) RW 14 length 3900 ft width 100 ft
---- / hdg 137

(C) RW 23 length 5001 ft width 150 ft
---- / hdg 233

(D) RW 32 length 3900 ft width 100 ft
---- / hdg 317

Location; KLWM
Day. 23 / Time. 07.39 Zulu
* Altimeter: 30.18
* Temperature: 24° c. 75.2°f.
* Wind from: 120° Speed 07 kn.
Dewpoint: 22° c.
Visibility: 5 Statute Miles.
Clouds: Few 900 ft.
Clouds: Broken 1300 ft.
Clouds: Overcast 2100 ft.
Conditions: Light Rain.

KLWM 230739Z AUTO 12007KT 5SM -RA FEW009 BKN013 OVC021 24/22 A3018 RMK AO2 RAB05 P0007 T02440217 $


Wind From 120°
Speed 07 kn.

 
 
jpsmedia.com for Web Design worldairports.se 2018   terms of use